Home > Products > Valid Products > TAF

000
FTUS43 KTOP 062337
TAFTOP
TAF
KTOP 062337Z 0700/0724 01010KT 5SM -SHRA VCTS OVC015CB
     FM070400 01012G19KT 6SM -SHRA OVC015
     FM070800 01010KT P6SM SCT008 BKN035
     FM071500 02009KT P6SM SCT100=



000
FTUS43 KTOP 062043 AAB
TAFTOP
TAF AMD
KTOP 062043Z 0621/0718 17012KT P6SM VCTS BKN040CB
     FM062130 27025G45KT 1SM +TSRA BKN015CB
      TEMPO 0622/0623 3SM TSRA BKN025CB
     FM062300 33010G18KT 5SM -SHRA VCTS OVC015CB
     FM070500 01010G18KT 5SM -SHRA BR OVC015
     FM071300 01010KT 6SM BR SCT008 BKN015=



000
FTUS43 KTOP 061720
TAFTOP
TAF
KTOP 061720Z 0618/0718 20012G22KT P6SM SCT040 BKN080
     FM062000 22010KT P6SM VCTS BKN040CB
      TEMPO 0621/0623 4SM TSRA OVC025CB
     FM070000 33010G18KT 5SM -SHRA VCTS OVC015CB
     FM070500 01010G18KT 5SM -SHRA BR OVC015
     FM071300 01010KT 6SM BR SCT008 BKN015=



000
FTUS43 KTOP 061128
TAFTOP
TAF
KTOP 061128Z 0612/0712 16012KT P6SM BKN250
     FM061500 19014G20KT P6SM SCT040 BKN120
     FM062100 20010KT P6SM VCTS BKN040CB
      TEMPO 0622/0624 4SM TSRA OVC030CB
     FM070100 34013KT 5SM -TSRA OVC030CB
     FM070300 01010KT 5SM -SHRA BR VCTS OVC015CB=



000
FTUS43 KTOP 061128
TAFTOP
TAF
KTOP 061128Z 0612/0712 16012KT P6SM BKN250
     FM061500 19014G20KT P6SM SCT040 BKN120
     FM062100 20010KT P6SM VCTS BKN040CB
      TEMPO 0622/0624 4SM TSRA OVC030CB
     FM070100 34013KT 5SM -TSRA OVC030CB
     FM070300 01010KT 5SM -SHRA BR VCTS OVC015CB=



000
FTUS43 KTOP 060520
TAFTOP
TAF
KTOP 060520Z 0606/0706 16012KT P6SM BKN250
     FM061500 19014G20KT P6SM SCT040 BKN120
     FM062300 20010KT 5SM TSRA OVC030CB
     FM070200 34013KT 5SM -SHRA VCTS OVC120CB=



000
FTUS43 KTOP 052320
TAFTOP
TAF
KTOP 052320Z 0600/0624 15010KT P6SM SCT250
     FM061500 19014G20KT P6SM SCT050 BKN120
     FM062100 19010KT P6SM OVC040
      TEMPO 0621/0624 5SM -TSRA BKN030CB=



000
FTUS43 KTOP 051810 AAA
TAFTOP
TAF AMD
KTOP 051810Z 0518/0618 17012G20KT P6SM VCTS SCT035 BKN040CB
      TEMPO 0518/0519 VRB15G40KT -TSRA BKN040CB
     FM060200 17011KT P6SM SCT200=



000
FTUS43 KTOP 051810 AAA
TAFTOP
TAF AMD
KTOP 051810Z 0518/0618 17012G20KT P6SM VCTS SCT035 BKN040CB
      TEMPO 0518/0519 VRB15G40KT -TSRA BKN040CB
     FM060200 17011KT P6SM SCT200=



000
FTUS43 KTOP 051732
TAFTOP
TAF
KTOP 051732Z 0518/0618 17012G20KT P6SM VCTS SCT035 BKN040CB
      TEMPO 0518/0519 VRB15G40KT
     FM060200 17011KT P6SM SCT200=



000
FTUS43 KTOP 051711 AAA
TAFTOP
TAF AMD
KTOP 051711Z 0517/0612 17012G22KT P6SM VCTS SCT035 BKN040CB
      TEMPO 0517/0519 VRB15G40KT
     FM060100 17011KT P6SM SCT200=



000
FTUS43 KTOP 051126
TAFTOP
TAF
KTOP 051126Z 0512/0612 12006KT 5SM BR SKC
     FM051400 13007KT P6SM SCT200
     FM051700 17012G22KT P6SM SCT035
     FM060100 17011KT P6SM SCT200=



000
FTUS43 KTOP 051126
TAFTOP
TAF
KTOP 051126Z 0512/0612 12006KT 5SM BR SKC
     FM051400 13007KT P6SM SCT200
     FM051700 17012G22KT P6SM SCT035
     FM060100 17011KT P6SM SCT200=



000
FTUS43 KTOP 050520
TAFTOP
TAF
KTOP 050520Z 0506/0606 10006KT 6SM HZ SKC
     FM051400 13007KT P6SM SKC
     FM051700 17012G22KT P6SM SCT035=



000
FTUS43 KTOP 050520
TAFTOP
TAF
KTOP 050520Z 0506/0606 10006KT 6SM HZ SKC
     FM051400 13007KT P6SM SKC
     FM051700 17012G22KT P6SM SCT035=



000
FTUS43 KTOP 050317 AAA
TAFTOP
TAF AMD
KTOP 050317Z 0503/0524 12006KT 6SM HZ SKC
      TEMPO 0504/0506 5SM HZ
     FM051700 17012G22KT P6SM SCT035=



000
FTUS43 KTOP 042320
TAFTOP
TAF
KTOP 042320Z 0500/0524 12004KT P6SM SCT200
     FM051700 17012G22KT P6SM SCT035=



000
FTUS43 KTOP 042320
TAFTOP
TAF
KTOP 042320Z 0500/0524 12004KT P6SM SCT200
     FM051700 17012G22KT P6SM SCT035=



000
FTUS43 KTOP 041735
TAFTOP
TAF
KTOP 041735Z 0418/0518 13008KT P6SM FEW035
     FM050800 14006KT P6SM BKN035=



000
FTUS43 KTOP 041735
TAFTOP
TAF
KTOP 041735Z 0418/0518 13008KT P6SM FEW035
     FM050800 14006KT P6SM BKN035=



000
FTUS43 KTOP 041257 AAB
TAFTOP
TAF AMD
KTOP 041257Z 0413/0512 00000KT 1/2SM FG SKC
      TEMPO 0413/0414 2SM BR
     FM041400 VRB02KT P6SM SKC
     FM041600 14006KT P6SM SKC=



000
FTUS43 KTOP 041226 AAA
TAFTOP
TAF AMD
KTOP 041226Z 0412/0512 00000KT 1/2SM FG SKC
     FM041300 VRB02KT 3SM BR SKC
     FM041330 VRB02KT P6SM SKC
     FM041600 14006KT P6SM SKC=



000
FTUS43 KTOP 041133
TAFTOP
TAF
KTOP 041133Z 0412/0512 00000KT 5SM BR SKC
     FM041300 VRB02KT P6SM SKC
     FM041600 14006KT P6SM SKC=



000
FTUS43 KTOP 040808 AAA
TAFTOP
TAF AMD
KTOP 040808Z 0408/0506 00000KT 2SM BR SKC
      TEMPO 0410/0412 1SM BR
     FM041300 13007KT P6SM SKC=



000
FTUS43 KTOP 040520
TAFTOP
TAF
KTOP 040520Z 0406/0506 00000KT 6SM BR SCT150
     FM040900 00000KT 4SM BR SKC
     FM041300 13007KT P6SM SKC=



    US Dept of Commerce
    National Oceanic and Atmospheric Administration
    National Weather Service
    1325 East West Highway
    Silver Spring, MD 20910
    Page Author: NWS Internet Services Team
Disclaimer
Information Quality
Credits
Glossary
Privacy Policy
Freedom of Information Act (FOIA)
About Us
Career Opportunities